sensor_id;sensor_type;location;lat;lon;timestamp;P1;P2;P0
73305;PMS5003;61530;51.158;0.880;2023-05-20T00:01:01;8;8;4
73305;PMS5003;61530;51.158;0.880;2023-05-20T00:02:04;12;9;5
73305;PMS5003;61530;51.158;0.880;2023-05-20T00:03:08;15;13;6
73305;PMS5003;61530;51.158;0.880;2023-05-20T00:04:13;14;12;7
73305;PMS5003;61530;51.158;0.880;2023-05-20T00:05:16;13;8;5
73305;PMS5003;61530;51.158;0.880;2023-05-20T00:06:20;16;16;6
73305;PMS5003;61530;51.158;0.880;2023-05-20T00:07:24;10;9;5
73305;PMS5003;61530;51.158;0.880;2023-05-20T00:08:29;8;6;4
73305;PMS5003;61530;51.158;0.880;2023-05-20T00:09:33;15;13;7
73305;PMS5003;61530;51.158;0.880;2023-05-20T00:10:36;11;9;6
73305;PMS5003;61530;51.158;0.880;2023-05-20T00:11:40;10;8;5
73305;PMS5003;61530;51.158;0.880;2023-05-20T00:12:45;11;8;4
73305;PMS5003;61530;51.158;0.880;2023-05-20T00:13:48;11;8;6
73305;PMS5003;61530;51.158;0.880;2023-05-20T00:14:52;15;15;7
73305;PMS5003;61530;51.158;0.880;2023-05-20T00:15:55;12;9;6
73305;PMS5003;61530;51.158;0.880;2023-05-20T00:17:01;12;8;5
73305;PMS5003;61530;51.158;0.880;2023-05-20T00:18:05;14;8;4
73305;PMS5003;61530;51.158;0.880;2023-05-20T00:19:09;9;9;6
73305;PMS5003;61530;51.158;0.880;2023-05-20T00:20:12;15;10;5
73305;PMS5003;61530;51.158;0.880;2023-05-20T00:21:17;16;15;5
73305;PMS5003;61530;51.158;0.880;2023-05-20T00:22:21;9;8;6
73305;PMS5003;61530;51.158;0.880;2023-05-20T00:23:24;12;10;5
73305;PMS5003;61530;51.158;0.880;2023-05-20T00:24:27;11;10;6
73305;PMS5003;61530;51.158;0.880;2023-05-20T00:25:33;10;7;5
73305;PMS5003;61530;51.158;0.880;2023-05-20T00:26:37;10;7;5
73305;PMS5003;61530;51.158;0.880;2023-05-20T00:27:40;10;7;5
73305;PMS5003;61530;51.158;0.880;2023-05-20T00:28:44;11;8;5
73305;PMS5003;61530;51.158;0.880;2023-05-20T00:29:49;12;9;4
73305;PMS5003;61530;51.158;0.880;2023-05-20T00:30:53;13;10;7
73305;PMS5003;61530;51.158;0.880;2023-05-20T00:31:56;13;10;6
73305;PMS5003;61530;51.158;0.880;2023-05-20T00:32:59;11;7;5
73305;PMS5003;61530;51.158;0.880;2023-05-20T00:34:05;12;10;5
73305;PMS5003;61530;51.158;0.880;2023-05-20T00:35:09;11;10;5
73305;PMS5003;61530;51.158;0.880;2023-05-20T00:36:12;9;9;6
73305;PMS5003;61530;51.158;0.880;2023-05-20T00:37:16;11;8;5
73305;PMS5003;61530;51.158;0.880;2023-05-20T00:38:21;12;8;5
73305;PMS5003;61530;51.158;0.880;2023-05-20T00:39:24;10;10;6
73305;PMS5003;61530;51.158;0.880;2023-05-20T00:40:28;12;8;4
73305;PMS5003;61530;51.158;0.880;2023-05-20T00:41:31;9;8;4
73305;PMS5003;61530;51.158;0.880;2023-05-20T00:42:37;10;7;5
73305;PMS5003;61530;51.158;0.880;2023-05-20T00:43:41;11;10;5
73305;PMS5003;61530;51.158;0.880;2023-05-20T00:44:44;9;8;5
73305;PMS5003;61530;51.158;0.880;2023-05-20T00:45:48;12;10;6
73305;PMS5003;61530;51.158;0.880;2023-05-20T00:46:53;13;8;5
73305;PMS5003;61530;51.158;0.880;2023-05-20T00:47:56;9;9;5
73305;PMS5003;61530;51.158;0.880;2023-05-20T00:49:00;9;9;6
73305;PMS5003;61530;51.158;0.880;2023-05-20T00:50:04;13;9;4
73305;PMS5003;61530;51.158;0.880;2023-05-20T00:51:09;13;10;7
73305;PMS5003;61530;51.158;0.880;2023-05-20T00:52:13;8;8;6
73305;PMS5003;61530;51.158;0.880;2023-05-20T00:53:16;15;11;6
73305;PMS5003;61530;51.158;0.880;2023-05-20T00:54:20;14;10;6
73305;PMS5003;61530;51.158;0.880;2023-05-20T00:55:25;11;11;5
73305;PMS5003;61530;51.158;0.880;2023-05-20T00:56:28;9;8;6
73305;PMS5003;61530;51.158;0.880;2023-05-20T00:57:32;11;9;6
73305;PMS5003;61530;51.158;0.880;2023-05-20T00:58:36;16;14;6
73305;PMS5003;61530;51.158;0.880;2023-05-20T00:59:41;10;10;4
73305;PMS5003;61530;51.158;0.880;2023-05-20T01:00:45;8;8;5
73305;PMS5003;61530;51.158;0.880;2023-05-20T01:01:48;10;8;4
73305;PMS5003;61530;51.158;0.880;2023-05-20T01:02:52;9;9;6
73305;PMS5003;61530;51.158;0.880;2023-05-20T01:03:57;9;6;4
73305;PMS5003;61530;51.158;0.880;2023-05-20T01:05:01;10;9;5
73305;PMS5003;61530;51.158;0.880;2023-05-20T01:06:04;12;9;7
73305;PMS5003;61530;51.158;0.880;2023-05-20T01:07:07;8;8;6
73305;PMS5003;61530;51.158;0.880;2023-05-20T01:08:13;18;9;5
73305;PMS5003;61530;51.158;0.880;2023-05-20T01:09:17;12;7;5
73305;PMS5003;61530;51.158;0.880;2023-05-20T01:10:20;16;9;5
73305;PMS5003;61530;51.158;0.880;2023-05-20T01:11:25;13;11;6
73305;PMS5003;61530;51.158;0.880;2023-05-20T01:12:30;18;16;8
73305;PMS5003;61530;51.158;0.880;2023-05-20T01:13:35;15;12;6
73305;PMS5003;61530;51.158;0.880;2023-05-20T01:14:37;11;9;5
73305;PMS5003;61530;51.158;0.880;2023-05-20T01:15:39;14;11;5
73305;PMS5003;61530;51.158;0.880;2023-05-20T01:16:46;11;9;5
73305;PMS5003;61530;51.158;0.880;2023-05-20T01:17:50;12;11;7
73305;PMS5003;61530;51.158;0.880;2023-05-20T01:18:53;11;10;6
73305;PMS5003;61530;51.158;0.880;2023-05-20T01:19:56;15;12;5
73305;PMS5003;61530;51.158;0.880;2023-05-20T01:21:01;12;9;7
73305;PMS5003;61530;51.158;0.880;2023-05-20T01:22:05;13;11;6
73305;PMS5003;61530;51.158;0.880;2023-05-20T01:23:08;11;10;6
73305;PMS5003;61530;51.158;0.880;2023-05-20T01:24:11;16;14;6
73305;PMS5003;61530;51.158;0.880;2023-05-20T01:25:17;14;11;7
73305;PMS5003;61530;51.158;0.880;2023-05-20T01:26:21;14;10;5
73305;PMS5003;61530;51.158;0.880;2023-05-20T01:27:24;13;10;6
73305;PMS5003;61530;51.158;0.880;2023-05-20T01:28:28;12;10;6
73305;PMS5003;61530;51.158;0.880;2023-05-20T01:29:33;15;13;7
73305;PMS5003;61530;51.158;0.880;2023-05-20T01:30:37;16;14;8
73305;PMS5003;61530;51.158;0.880;2023-05-20T01:31:40;12;10;6
73305;PMS5003;61530;51.158;0.880;2023-05-20T01:32:45;15;13;6
73305;PMS5003;61530;51.158;0.880;2023-05-20T01:33:52;14;11;6
73305;PMS5003;61530;51.158;0.880;2023-05-20T01:34:53;15;12;6
73305;PMS5003;61530;51.158;0.880;2023-05-20T01:35:56;12;11;7
73305;PMS5003;61530;51.158;0.880;2023-05-20T01:37:00;13;11;6
73305;PMS5003;61530;51.158;0.880;2023-05-20T01:38:05;19;14;7
73305;PMS5003;61530;51.158;0.880;2023-05-20T01:39:08;14;14;7
73305;PMS5003;61530;51.158;0.880;2023-05-20T01:40:13;16;15;7
73305;PMS5003;61530;51.158;0.880;2023-05-20T01:41:15;19;14;6
73305;PMS5003;61530;51.158;0.880;2023-05-20T01:42:21;12;12;7
73305;PMS5003;61530;51.158;0.880;2023-05-20T01:43:25;18;14;8
73305;PMS5003;61530;51.158;0.880;2023-05-20T01:44:28;12;11;7
73305;PMS5003;61530;51.158;0.880;2023-05-20T01:45:32;12;10;6
73305;PMS5003;61530;51.158;0.880;2023-05-20T01:46:37;18;15;6
73305;PMS5003;61530;51.158;0.880;2023-05-20T01:47:40;20;12;7
73305;PMS5003;61530;51.158;0.880;2023-05-20T01:48:44;17;13;9
73305;PMS5003;61530;51.158;0.880;2023-05-20T01:49:47;17;15;8
73305;PMS5003;61530;51.158;0.880;2023-05-20T01:50:53;16;13;8
73305;PMS5003;61530;51.158;0.880;2023-05-20T01:51:57;14;13;7
73305;PMS5003;61530;51.158;0.880;2023-05-20T01:53:00;16;13;8
73305;PMS5003;61530;51.158;0.880;2023-05-20T01:54:04;18;11;7
73305;PMS5003;61530;51.158;0.880;2023-05-20T01:55:09;15;12;8
73305;PMS5003;61530;51.158;0.880;2023-05-20T01:56:12;13;11;7
73305;PMS5003;61530;51.158;0.880;2023-05-20T01:57:16;15;14;9
73305;PMS5003;61530;51.158;0.880;2023-05-20T01:58:19;14;14;8
73305;PMS5003;61530;51.158;0.880;2023-05-20T01:59:25;14;14;9
73305;PMS5003;61530;51.158;0.880;2023-05-20T02:00:29;16;14;8
73305;PMS5003;61530;51.158;0.880;2023-05-20T02:01:32;16;12;7
73305;PMS5003;61530;51.158;0.880;2023-05-20T02:02:36;15;14;7
73305;PMS5003;61530;51.158;0.880;2023-05-20T02:03:41;16;13;9
73305;PMS5003;61530;51.158;0.880;2023-05-20T02:04:45;13;13;8
73305;PMS5003;61530;51.158;0.880;2023-05-20T02:05:48;18;13;9
73305;PMS5003;61530;51.158;0.880;2023-05-20T02:06:51;13;13;8
73305;PMS5003;61530;51.158;0.880;2023-05-20T02:07:57;17;12;7
73305;PMS5003;61530;51.158;0.880;2023-05-20T02:09:01;14;13;8
73305;PMS5003;61530;51.158;0.880;2023-05-20T02:10:04;16;15;8
73305;PMS5003;61530;51.158;0.880;2023-05-20T02:11:08;15;12;7
73305;PMS5003;61530;51.158;0.880;2023-05-20T02:12:13;17;14;9
73305;PMS5003;61530;51.158;0.880;2023-05-20T02:13:16;16;14;9
73305;PMS5003;61530;51.158;0.880;2023-05-20T02:14:20;13;13;8
73305;PMS5003;61530;51.158;0.880;2023-05-20T02:15:23;17;14;8
73305;PMS5003;61530;51.158;0.880;2023-05-20T02:16:29;13;11;8
73305;PMS5003;61530;51.158;0.880;2023-05-20T02:17:33;17;13;9
73305;PMS5003;61530;51.158;0.880;2023-05-20T02:18:36;17;15;8
73305;PMS5003;61530;51.158;0.880;2023-05-20T02:19:40;16;15;9
73305;PMS5003;61530;51.158;0.880;2023-05-20T02:20:45;15;12;8
73305;PMS5003;61530;51.158;0.880;2023-05-20T02:21:49;20;20;10
73305;PMS5003;61530;51.158;0.880;2023-05-20T02:22:52;18;14;10
73305;PMS5003;61530;51.158;0.880;2023-05-20T02:23:55;20;17;10
73305;PMS5003;61530;51.158;0.880;2023-05-20T02:25:01;17;17;8
73305;PMS5003;61530;51.158;0.880;2023-05-20T02:26:05;27;22;10
73305;PMS5003;61530;51.158;0.880;2023-05-20T02:27:08;16;13;8
73305;PMS5003;61530;51.158;0.880;2023-05-20T02:28:12;21;19;9
73305;PMS5003;61530;51.158;0.880;2023-05-20T02:29:17;18;15;9
73305;PMS5003;61530;51.158;0.880;2023-05-20T02:30:20;20;18;11
73305;PMS5003;61530;51.158;0.880;2023-05-20T02:31:24;18;16;9
73305;PMS5003;61530;51.158;0.880;2023-05-20T02:32:27;21;19;12
73305;PMS5003;61530;51.158;0.880;2023-05-20T02:33:33;21;20;10
73305;PMS5003;61530;51.158;0.880;2023-05-20T02:34:37;18;18;11
73305;PMS5003;61530;51.158;0.880;2023-05-20T02:35:40;26;21;11
73305;PMS5003;61530;51.158;0.880;2023-05-20T02:36:44;22;21;10
73305;PMS5003;61530;51.158;0.880;2023-05-20T02:37:49;19;15;10
73305;PMS5003;61530;51.158;0.880;2023-05-20T02:38:52;25;20;11
73305;PMS5003;61530;51.158;0.880;2023-05-20T02:39:56;22;16;10
73305;PMS5003;61530;51.158;0.880;2023-05-20T02:40:59;26;25;9
73305;PMS5003;61530;51.158;0.880;2023-05-20T02:42:05;24;20;13
73305;PMS5003;61530;51.158;0.880;2023-05-20T02:43:09;24;22;10
73305;PMS5003;61530;51.158;0.880;2023-05-20T02:44:12;22;21;10
73305;PMS5003;61530;51.158;0.880;2023-05-20T02:45:16;21;18;12
73305;PMS5003;61530;51.158;0.880;2023-05-20T02:46:21;23;17;11
73305;PMS5003;61530;51.158;0.880;2023-05-20T02:47:25;31;23;12
73305;PMS5003;61530;51.158;0.880;2023-05-20T02:48:28;19;17;9
73305;PMS5003;61530;51.158;0.880;2023-05-20T02:49:32;29;23;10
73305;PMS5003;61530;51.158;0.880;2023-05-20T02:50:37;26;22;11
73305;PMS5003;61530;51.158;0.880;2023-05-20T02:51:41;19;15;9
73305;PMS5003;61530;51.158;0.880;2023-05-20T02:52:44;26;19;10
73305;PMS5003;61530;51.158;0.880;2023-05-20T02:53:48;21;20;11
73305;PMS5003;61530;51.158;0.880;2023-05-20T02:54:53;17;17;11
73305;PMS5003;61530;51.158;0.880;2023-05-20T02:55:56;22;16;10
73305;PMS5003;61530;51.158;0.880;2023-05-20T02:57:00;21;17;11
73305;PMS5003;61530;51.158;0.880;2023-05-20T02:58:03;17;16;10
73305;PMS5003;61530;51.158;0.880;2023-05-20T02:59:09;20;15;8
73305;PMS5003;61530;51.158;0.880;2023-05-20T03:00:13;19;17;10
73305;PMS5003;61530;51.158;0.880;2023-05-20T03:01:16;19;19;10
73305;PMS5003;61530;51.158;0.880;2023-05-20T03:02:20;20;19;13
73305;PMS5003;61530;51.158;0.880;2023-05-20T03:03:25;22;21;9
73305;PMS5003;61530;51.158;0.880;2023-05-20T03:04:28;14;14;9
73305;PMS5003;61530;51.158;0.880;2023-05-20T03:05:32;16;15;10
73305;PMS5003;61530;51.158;0.880;2023-05-20T03:06:35;26;20;11
73305;PMS5003;61530;51.158;0.880;2023-05-20T03:07:41;20;19;11
73305;PMS5003;61530;51.158;0.880;2023-05-20T03:08:45;17;16;10
73305;PMS5003;61530;51.158;0.880;2023-05-20T03:09:48;18;17;11
73305;PMS5003;61530;51.158;0.880;2023-05-20T03:10:52;29;22;11
73305;PMS5003;61530;51.158;0.880;2023-05-20T03:11:57;24;17;11
73305;PMS5003;61530;51.158;0.880;2023-05-20T03:13:01;22;19;12
73305;PMS5003;61530;51.158;0.880;2023-05-20T03:14:04;24;23;11
73305;PMS5003;61530;51.158;0.880;2023-05-20T03:15:08;18;17;11
73305;PMS5003;61530;51.158;0.880;2023-05-20T03:16:13;22;19;11
73305;PMS5003;61530;51.158;0.880;2023-05-20T03:17:17;19;19;10
73305;PMS5003;61530;51.158;0.880;2023-05-20T03:18:20;27;21;12
73305;PMS5003;61530;51.158;0.880;2023-05-20T03:19:24;28;23;12
73305;PMS5003;61530;51.158;0.880;2023-05-20T03:20:29;21;18;11
73305;PMS5003;61530;51.158;0.880;2023-05-20T03:21:32;29;27;12
73305;PMS5003;61530;51.158;0.880;2023-05-20T03:22:36;19;19;12
73305;PMS5003;61530;51.158;0.880;2023-05-20T03:23:39;30;27;14
73305;PMS5003;61530;51.158;0.880;2023-05-20T03:24:45;18;18;13
73305;PMS5003;61530;51.158;0.880;2023-05-20T03:25:49;22;21;11
73305;PMS5003;61530;51.158;0.880;2023-05-20T03:26:52;28;21;11
73305;PMS5003;61530;51.158;0.880;2023-05-20T03:27:56;21;18;10
73305;PMS5003;61530;51.158;0.880;2023-05-20T03:29:01;23;23;11
73305;PMS5003;61530;51.158;0.880;2023-05-20T03:30:05;27;22;13
73305;PMS5003;61530;51.158;0.880;2023-05-20T03:31:08;23;18;11
73305;PMS5003;61530;51.158;0.880;2023-05-20T03:32:11;23;18;13
73305;PMS5003;61530;51.158;0.880;2023-05-20T03:33:17;26;19;11
73305;PMS5003;61530;51.158;0.880;2023-05-20T03:34:21;22;22;11
73305;PMS5003;61530;51.158;0.880;2023-05-20T03:35:24;17;17;12
73305;PMS5003;61530;51.158;0.880;2023-05-20T03:36:28;19;18;12
73305;PMS5003;61530;51.158;0.880;2023-05-20T03:37:33;19;18;12
73305;PMS5003;61530;51.158;0.880;2023-05-20T03:38:36;20;17;11
73305;PMS5003;61530;51.158;0.880;2023-05-20T03:39:40;21;18;12
73305;PMS5003;61530;51.158;0.880;2023-05-20T03:40:43;18;18;10
73305;PMS5003;61530;51.158;0.880;2023-05-20T03:41:49;18;16;11
73305;PMS5003;61530;51.158;0.880;2023-05-20T03:42:53;32;24;13
73305;PMS5003;61530;51.158;0.880;2023-05-20T03:43:56;24;24;12
73305;PMS5003;61530;51.158;0.880;2023-05-20T03:45:00;24;19;10
73305;PMS5003;61530;51.158;0.880;2023-05-20T03:46:05;18;17;10
73305;PMS5003;61530;51.158;0.880;2023-05-20T03:47:08;19;17;10
73305;PMS5003;61530;51.158;0.880;2023-05-20T03:48:12;21;20;10
73305;PMS5003;61530;51.158;0.880;2023-05-20T03:49:15;21;19;11
73305;PMS5003;61530;51.158;0.880;2023-05-20T03:50:21;26;20;11
73305;PMS5003;61530;51.158;0.880;2023-05-20T03:51:25;21;15;10
73305;PMS5003;61530;51.158;0.880;2023-05-20T03:52:28;23;17;11
73305;PMS5003;61530;51.158;0.880;2023-05-20T03:53:32;21;16;11
73305;PMS5003;61530;51.158;0.880;2023-05-20T03:54:37;27;23;11
73305;PMS5003;61530;51.158;0.880;2023-05-20T03:55:40;28;22;13
73305;PMS5003;61530;51.158;0.880;2023-05-20T03:56:44;18;17;11
73305;PMS5003;61530;51.158;0.880;2023-05-20T03:57:47;24;20;12
73305;PMS5003;61530;51.158;0.880;2023-05-20T03:58:53;26;20;11
73305;PMS5003;61530;51.158;0.880;2023-05-20T03:59:57;17;17;10
73305;PMS5003;61530;51.158;0.880;2023-05-20T04:01:00;22;17;10
73305;PMS5003;61530;51.158;0.880;2023-05-20T04:02:04;20;16;12
73305;PMS5003;61530;51.158;0.880;2023-05-20T04:03:09;19;17;10
73305;PMS5003;61530;51.158;0.880;2023-05-20T04:04:12;26;22;12
73305;PMS5003;61530;51.158;0.880;2023-05-20T04:05:16;19;18;11
73305;PMS5003;61530;51.158;0.880;2023-05-20T04:06:19;20;16;10
73305;PMS5003;61530;51.158;0.880;2023-05-20T04:07:25;20;16;9
73305;PMS5003;61530;51.158;0.880;2023-05-20T04:08:29;19;15;9
73305;PMS5003;61530;51.158;0.880;2023-05-20T04:09:32;16;14;9
73305;PMS5003;61530;51.158;0.880;2023-05-20T04:10:36;24;19;14
73305;PMS5003;61530;51.158;0.880;2023-05-20T04:11:41;22;21;11
73305;PMS5003;61530;51.158;0.880;2023-05-20T04:12:44;19;16;11
73305;PMS5003;61530;51.158;0.880;2023-05-20T04:13:48;26;20;10
73305;PMS5003;61530;51.158;0.880;2023-05-20T04:14:51;30;25;11
73305;PMS5003;61530;51.158;0.880;2023-05-20T04:15:57;17;15;11
73305;PMS5003;61530;51.158;0.880;2023-05-20T04:17:02;17;15;10
73305;PMS5003;61530;51.158;0.880;2023-05-20T04:18:04;25;18;11
73305;PMS5003;61530;51.158;0.880;2023-05-20T04:19:08;18;14;9
73305;PMS5003;61530;51.158;0.880;2023-05-20T04:20:13;18;13;8
73305;PMS5003;61530;51.158;0.880;2023-05-20T04:21:16;20;17;9
73305;PMS5003;61530;51.158;0.880;2023-05-20T04:22:20;19;15;9
73305;PMS5003;61530;51.158;0.880;2023-05-20T04:23:23;16;16;9
73305;PMS5003;61530;51.158;0.880;2023-05-20T04:24:29;17;15;10
73305;PMS5003;61530;51.158;0.880;2023-05-20T04:25:33;21;14;10
73305;PMS5003;61530;51.158;0.880;2023-05-20T04:26:36;24;21;10
73305;PMS5003;61530;51.158;0.880;2023-05-20T04:27:40;18;18;9
73305;PMS5003;61530;51.158;0.880;2023-05-20T04:28:45;17;13;8
73305;PMS5003;61530;51.158;0.880;2023-05-20T04:29:48;20;18;10
73305;PMS5003;61530;51.158;0.880;2023-05-20T04:30:56;20;20;9
73305;PMS5003;61530;51.158;0.880;2023-05-20T04:31:55;17;16;9
73305;PMS5003;61530;51.158;0.880;2023-05-20T04:33:01;18;17;11
73305;PMS5003;61530;51.158;0.880;2023-05-20T04:34:05;19;16;10
73305;PMS5003;61530;51.158;0.880;2023-05-20T04:35:08;22;19;9
73305;PMS5003;61530;51.158;0.880;2023-05-20T04:36:12;18;15;10
73305;PMS5003;61530;51.158;0.880;2023-05-20T04:37:17;20;18;11
73305;PMS5003;61530;51.158;0.880;2023-05-20T04:38:20;21;18;11
73305;PMS5003;61530;51.158;0.880;2023-05-20T04:39:24;22;20;11
73305;PMS5003;61530;51.158;0.880;2023-05-20T04:40:27;20;15;10
73305;PMS5003;61530;51.158;0.880;2023-05-20T04:41:33;20;19;11
73305;PMS5003;61530;51.158;0.880;2023-05-20T04:42:37;18;15;9
73305;PMS5003;61530;51.158;0.880;2023-05-20T04:43:40;23;20;10
73305;PMS5003;61530;51.158;0.880;2023-05-20T04:44:44;18;18;12
73305;PMS5003;61530;51.158;0.880;2023-05-20T04:45:49;19;17;9
73305;PMS5003;61530;51.158;0.880;2023-05-20T04:46:52;18;15;9
73305;PMS5003;61530;51.158;0.880;2023-05-20T04:47:56;20;18;10
73305;PMS5003;61530;51.158;0.880;2023-05-20T04:48:59;18;17;12
73305;PMS5003;61530;51.158;0.880;2023-05-20T04:50:06;15;13;9
73305;PMS5003;61530;51.158;0.880;2023-05-20T04:51:09;18;18;10
73305;PMS5003;61530;51.158;0.880;2023-05-20T04:52:12;19;17;10
73305;PMS5003;61530;51.158;0.880;2023-05-20T04:53:16;24;21;10
73305;PMS5003;61530;51.158;0.880;2023-05-20T04:54:21;24;21;11
73305;PMS5003;61530;51.158;0.880;2023-05-20T04:55:24;23;20;9
73305;PMS5003;61530;51.158;0.880;2023-05-20T04:56:28;20;18;11
73305;PMS5003;61530;51.158;0.880;2023-05-20T04:57:31;21;21;11
73305;PMS5003;61530;51.158;0.880;2023-05-20T04:58:37;23;19;10
73305;PMS5003;61530;51.158;0.880;2023-05-20T04:59:41;22;18;12
73305;PMS5003;61530;51.158;0.880;2023-05-20T05:00:44;23;17;11
73305;PMS5003;61530;51.158;0.880;2023-05-20T05:01:48;22;20;12
73305;PMS5003;61530;51.158;0.880;2023-05-20T05:02:53;19;17;11
73305;PMS5003;61530;51.158;0.880;2023-05-20T05:03:56;22;19;13
73305;PMS5003;61530;51.158;0.880;2023-05-20T05:05:00;26;22;12
73305;PMS5003;61530;51.158;0.880;2023-05-20T05:06:03;26;22;13
73305;PMS5003;61530;51.158;0.880;2023-05-20T05:07:09;23;21;11
73305;PMS5003;61530;51.158;0.880;2023-05-20T05:08:13;24;20;11
73305;PMS5003;61530;51.158;0.880;2023-05-20T05:09:16;19;18;11
73305;PMS5003;61530;51.158;0.880;2023-05-20T05:10:20;18;17;10
73305;PMS5003;61530;51.158;0.880;2023-05-20T05:11:25;18;17;11
73305;PMS5003;61530;51.158;0.880;2023-05-20T05:12:28;26;24;12
73305;PMS5003;61530;51.158;0.880;2023-05-20T05:13:32;23;20;12
73305;PMS5003;61530;51.158;0.880;2023-05-20T05:14:35;22;18;10
73305;PMS5003;61530;51.158;0.880;2023-05-20T05:15:41;20;17;11
73305;PMS5003;61530;51.158;0.880;2023-05-20T05:16:45;24;19;10
73305;PMS5003;61530;51.158;0.880;2023-05-20T05:17:48;23;21;9
73305;PMS5003;61530;51.158;0.880;2023-05-20T05:18:52;19;19;12
73305;PMS5003;61530;51.158;0.880;2023-05-20T05:19:57;22;18;11
73305;PMS5003;61530;51.158;0.880;2023-05-20T05:21:01;19;19;11
73305;PMS5003;61530;51.158;0.880;2023-05-20T05:22:04;17;17;12
73305;PMS5003;61530;51.158;0.880;2023-05-20T05:23:07;22;20;11
73305;PMS5003;61530;51.158;0.880;2023-05-20T05:24:13;22;19;11
73305;PMS5003;61530;51.158;0.880;2023-05-20T05:25:17;28;25;12
73305;PMS5003;61530;51.158;0.880;2023-05-20T05:26:20;23;19;11
73305;PMS5003;61530;51.158;0.880;2023-05-20T05:27:24;25;20;10
73305;PMS5003;61530;51.158;0.880;2023-05-20T05:28:29;22;21;11
73305;PMS5003;61530;51.158;0.880;2023-05-20T05:29:32;27;19;11
73305;PMS5003;61530;51.158;0.880;2023-05-20T05:30:36;30;21;10
73305;PMS5003;61530;51.158;0.880;2023-05-20T05:31:39;23;21;10
73305;PMS5003;61530;51.158;0.880;2023-05-20T05:32:45;21;17;11
73305;PMS5003;61530;51.158;0.880;2023-05-20T05:33:49;20;18;10
73305;PMS5003;61530;51.158;0.880;2023-05-20T05:34:52;22;22;11
73305;PMS5003;61530;51.158;0.880;2023-05-20T05:35:56;25;19;11
73305;PMS5003;61530;51.158;0.880;2023-05-20T05:37:02;25;20;11
73305;PMS5003;61530;51.158;0.880;2023-05-20T05:38:04;23;20;10
73305;PMS5003;61530;51.158;0.880;2023-05-20T05:39:08;20;17;11
73305;PMS5003;61530;51.158;0.880;2023-05-20T05:40:12;22;21;12
73305;PMS5003;61530;51.158;0.880;2023-05-20T05:41:17;22;22;11
73305;PMS5003;61530;51.158;0.880;2023-05-20T05:42:21;25;20;12
73305;PMS5003;61530;51.158;0.880;2023-05-20T05:43:24;22;20;12
73305;PMS5003;61530;51.158;0.880;2023-05-20T05:44:28;22;19;10
73305;PMS5003;61530;51.158;0.880;2023-05-20T05:45:33;22;19;12
73305;PMS5003;61530;51.158;0.880;2023-05-20T05:46:36;18;18;12
73305;PMS5003;61530;51.158;0.880;2023-05-20T05:47:41;28;26;13
73305;PMS5003;61530;51.158;0.880;2023-05-20T05:48:43;22;20;11
73305;PMS5003;61530;51.158;0.880;2023-05-20T05:49:49;22;19;11
73305;PMS5003;61530;51.158;0.880;2023-05-20T05:50:53;28;21;13
73305;PMS5003;61530;51.158;0.880;2023-05-20T05:51:56;27;24;11
73305;PMS5003;61530;51.158;0.880;2023-05-20T05:53:00;21;20;12
73305;PMS5003;61530;51.158;0.880;2023-05-20T05:54:05;26;20;10
73305;PMS5003;61530;51.158;0.880;2023-05-20T05:55:09;21;20;12
73305;PMS5003;61530;51.158;0.880;2023-05-20T05:56:12;29;23;12
73305;PMS5003;61530;51.158;0.880;2023-05-20T05:57:15;24;23;15
73305;PMS5003;61530;51.158;0.880;2023-05-20T05:58:21;24;20;11
73305;PMS5003;61530;51.158;0.880;2023-05-20T05:59:25;24;21;12
73305;PMS5003;61530;51.158;0.880;2023-05-20T06:00:28;21;18;12
73305;PMS5003;61530;51.158;0.880;2023-05-20T06:01:32;28;19;12
73305;PMS5003;61530;51.158;0.880;2023-05-20T06:02:37;22;17;11
73305;PMS5003;61530;51.158;0.880;2023-05-20T06:03:40;19;16;12
73305;PMS5003;61530;51.158;0.880;2023-05-20T06:04:44;27;21;13
73305;PMS5003;61530;51.158;0.880;2023-05-20T06:05:47;24;19;10
73305;PMS5003;61530;51.158;0.880;2023-05-20T06:06:53;21;18;10
73305;PMS5003;61530;51.158;0.880;2023-05-20T06:07:57;21;21;13
73305;PMS5003;61530;51.158;0.880;2023-05-20T06:09:00;23;17;10
73305;PMS5003;61530;51.158;0.880;2023-05-20T06:10:04;23;19;11
73305;PMS5003;61530;51.158;0.880;2023-05-20T06:11:09;18;16;11
73305;PMS5003;61530;51.158;0.880;2023-05-20T06:12:12;25;21;11
73305;PMS5003;61530;51.158;0.880;2023-05-20T06:13:16;20;16;13
73305;PMS5003;61530;51.158;0.880;2023-05-20T06:14:20;18;17;12
73305;PMS5003;61530;51.158;0.880;2023-05-20T06:15:25;18;17;11
73305;PMS5003;61530;51.158;0.880;2023-05-20T06:16:29;20;19;11
73305;PMS5003;61530;51.158;0.880;2023-05-20T06:17:32;22;17;11
73305;PMS5003;61530;51.158;0.880;2023-05-20T06:18:36;17;17;11
73305;PMS5003;61530;51.158;0.880;2023-05-20T06:19:41;19;18;12
73305;PMS5003;61530;51.158;0.880;2023-05-20T06:20:44;20;17;11
73305;PMS5003;61530;51.158;0.880;2023-05-20T06:21:48;23;22;13
73305;PMS5003;61530;51.158;0.880;2023-05-20T06:22:51;22;20;13
73305;PMS5003;61530;51.158;0.880;2023-05-20T06:23:57;25;22;13
73305;PMS5003;61530;51.158;0.880;2023-05-20T06:25:01;23;23;12
73305;PMS5003;61530;51.158;0.880;2023-05-20T06:26:04;22;19;12
73305;PMS5003;61530;51.158;0.880;2023-05-20T06:27:08;24;21;12
73305;PMS5003;61530;51.158;0.880;2023-05-20T06:28:13;28;22;11
73305;PMS5003;61530;51.158;0.880;2023-05-20T06:29:16;24;21;11
73305;PMS5003;61530;51.158;0.880;2023-05-20T06:30:20;19;17;12
73305;PMS5003;61530;51.158;0.880;2023-05-20T06:31:23;24;21;13
73305;PMS5003;61530;51.158;0.880;2023-05-20T06:32:29;20;17;12
73305;PMS5003;61530;51.158;0.880;2023-05-20T06:33:33;27;23;12
73305;PMS5003;61530;51.158;0.880;2023-05-20T06:34:36;23;20;12
73305;PMS5003;61530;51.158;0.880;2023-05-20T06:35:40;17;15;11
73305;PMS5003;61530;51.158;0.880;2023-05-20T06:36:45;24;20;12
73305;PMS5003;61530;51.158;0.880;2023-05-20T06:37:48;20;18;10
73305;PMS5003;61530;51.158;0.880;2023-05-20T06:38:52;24;19;11
73305;PMS5003;61530;51.158;0.880;2023-05-20T06:39:55;21;20;13
73305;PMS5003;61530;51.158;0.880;2023-05-20T06:41:01;19;17;10
73305;PMS5003;61530;51.158;0.880;2023-05-20T06:42:05;22;20;13
73305;PMS5003;61530;51.158;0.880;2023-05-20T06:43:08;22;18;11
73305;PMS5003;61530;51.158;0.880;2023-05-20T06:44:12;31;24;11
73305;PMS5003;61530;51.158;0.880;2023-05-20T06:45:17;21;19;12
73305;PMS5003;61530;51.158;0.880;2023-05-20T06:46:20;29;22;11
73305;PMS5003;61530;51.158;0.880;2023-05-20T06:47:24;21;21;13
73305;PMS5003;61530;51.158;0.880;2023-05-20T06:48:27;20;17;11
73305;PMS5003;61530;51.158;0.880;2023-05-20T06:49:33;19;19;10
73305;PMS5003;61530;51.158;0.880;2023-05-20T06:50:37;24;17;10
73305;PMS5003;61530;51.158;0.880;2023-05-20T06:51:40;18;17;10
73305;PMS5003;61530;51.158;0.880;2023-05-20T06:52:44;26;20;10
73305;PMS5003;61530;51.158;0.880;2023-05-20T06:53:49;23;21;11
73305;PMS5003;61530;51.158;0.880;2023-05-20T06:54:52;22;21;11